LVL298G LEBL-KMIA
Flight info
| Callsign | LVL298G |
|---|---|
| Flight time | N/A |
| Altitude | 35000 |
| Route | LOBAR N725 NUBLO/N0480F360 DCT SUSOS DCT STG DCT HIDRA/M083F360 DCT 46N020W 46N030W 45N040W 43N050W/M083F380 40N060W/M083F400 DCT SELIM M203 SNAGY/N0476F400 BNFSH3 |
| Aircraft | A332/H-SDE3GHIJ2J3J5M1RVWXY/LB2D1 |
Departure
| Time | 2026-05-04 05:04 |
|---|---|
| Airport | Josep Tarradellas Barcelona-El Prat Airport (LEBL) |
Arrival
| Time | N/A |
|---|---|
| Airport | Miami International Airport (KMIA) |
| Time | Latitude | Longitude | Altitude | Speed | Heading |
|---|---|---|---|---|---|
| 2026-05-04 04:39 | 41.28609 | 2.07417 | 23 ft | 0 kts | 335° |
| 2026-05-04 04:54 | 41.28591 | 2.07427 | 27 ft | 4 kts | 335° |
| 2026-05-04 04:54 | 41.28566 | 2.07442 | 27 ft | 4 kts | 335° |
| 2026-05-04 04:55 | 41.28547 | 2.07454 | 27 ft | 4 kts | 339° |
| 2026-05-04 04:55 | 41.28523 | 2.07458 | 27 ft | 4 kts | 28° |
| 2026-05-04 04:55 | 41.28508 | 2.07436 | 25 ft | 4 kts | 65° |
| 2026-05-04 04:55 | 41.28499 | 2.07409 | 26 ft | 0 kts | 65° |
| 2026-05-04 04:58 | 41.28499 | 2.07410 | 26 ft | 0 kts | 65° |
| 2026-05-04 04:58 | 41.28514 | 2.07454 | 26 ft | 11 kts | 65° |
| 2026-05-04 04:58 | 41.28563 | 2.07600 | 24 ft | 20 kts | 66° |
| 2026-05-04 04:58 | 41.28621 | 2.07770 | 22 ft | 22 kts | 66° |
| 2026-05-04 04:59 | 41.28649 | 2.07944 | 20 ft | 17 kts | 132° |
| 2026-05-04 04:59 | 41.28641 | 2.08085 | 21 ft | 20 kts | 69° |
| 2026-05-04 04:59 | 41.28715 | 2.08299 | 20 ft | 32 kts | 66° |
| 2026-05-04 04:59 | 41.28823 | 2.08615 | 23 ft | 43 kts | 65° |
| 2026-05-04 05:00 | 41.28939 | 2.08955 | 22 ft | 38 kts | 65° |
| 2026-05-04 05:00 | 41.29046 | 2.09265 | 21 ft | 36 kts | 65° |
| 2026-05-04 05:00 | 41.29241 | 2.09835 | 21 ft | 32 kts | 65° |
| 2026-05-04 05:01 | 41.29339 | 2.10089 | 21 ft | 30 kts | 65° |
| 2026-05-04 05:01 | 41.29349 | 2.10254 | 19 ft | 12 kts | 135° |
| 2026-05-04 05:01 | 41.29300 | 2.10289 | 18 ft | 12 kts | 155° |
| 2026-05-04 05:01 | 41.29202 | 2.10274 | 19 ft | 10 kts | 239° |
| 2026-05-04 05:02 | 41.29192 | 2.10245 | 19 ft | 0 kts | 247° |
| 2026-05-04 05:02 | 41.29146 | 2.10103 | 23 ft | 43 kts | 246° |
| 2026-05-04 05:02 | 41.28943 | 2.09514 | 25 ft | 96 kts | 245° |
| 2026-05-04 05:02 | 41.28726 | 2.08878 | 25 ft | 127 kts | 245° |
| 2026-05-04 05:03 | 41.28306 | 2.07645 | 85 ft | 161 kts | 247° |
| 2026-05-04 05:03 | 41.27847 | 2.06327 | 601 ft | 157 kts | 245° |
| 2026-05-04 05:04 | 41.25130 | 2.04349 | 1604 ft | 180 kts | 175° |
| 2026-05-04 05:04 | 41.23824 | 2.04455 | 1809 ft | 195 kts | 179° |
| 2026-05-04 05:04 | 41.22419 | 2.04402 | 2043 ft | 208 kts | 185° |
| 2026-05-04 05:06 | 41.14508 | 1.96536 | 5339 ft | 226 kts | 232° |
| 2026-05-04 05:06 | 41.13579 | 1.94780 | 5694 ft | 239 kts | 242° |
| 2026-05-04 05:06 | 41.12948 | 1.92718 | 6291 ft | 243 kts | 250° |
| 2026-05-04 05:07 | 41.12440 | 1.90563 | 6915 ft | 246 kts | 252° |
| 2026-05-04 05:07 | 41.11948 | 1.88382 | 7546 ft | 248 kts | 252° |
| 2026-05-04 05:07 | 41.11526 | 1.86166 | 8231 ft | 248 kts | 262° |
| 2026-05-04 05:09 | 41.21121 | 1.70301 | 11255 ft | 354 kts | 320° |
| 2026-05-04 05:09 | 41.23058 | 1.68200 | 11520 ft | 365 kts | 315° |
| 2026-05-04 05:10 | 41.24968 | 1.65940 | 11956 ft | 370 kts | 314° |
| 2026-05-04 05:10 | 41.26892 | 1.63633 | 12489 ft | 374 kts | 314° |
| 2026-05-04 05:10 | 41.28807 | 1.61335 | 13016 ft | 377 kts | 314° |
| 2026-05-04 05:10 | 41.30760 | 1.58989 | 13551 ft | 380 kts | 313° |
| 2026-05-04 05:11 | 41.32730 | 1.56623 | 14060 ft | 382 kts | 313° |
| 2026-05-04 05:11 | 41.34722 | 1.54256 | 14508 ft | 386 kts | 314° |
| 2026-05-04 05:11 | 41.36754 | 1.51906 | 14957 ft | 389 kts | 315° |
| 2026-05-04 05:11 | 41.38815 | 1.49537 | 15393 ft | 393 kts | 315° |
| 2026-05-04 05:12 | 41.40892 | 1.47149 | 15877 ft | 395 kts | 315° |
| 2026-05-04 05:12 | 41.42977 | 1.44748 | 16353 ft | 397 kts | 314° |
| 2026-05-04 05:12 | 41.45073 | 1.42333 | 16804 ft | 399 kts | 314° |
| 2026-05-04 05:12 | 41.47178 | 1.39904 | 17261 ft | 402 kts | 314° |
| 2026-05-04 05:13 | 41.49180 | 1.37314 | 17699 ft | 399 kts | 305° |
| 2026-05-04 05:13 | 41.50645 | 1.34214 | 18137 ft | 393 kts | 289° |
| 2026-05-04 05:13 | 41.51367 | 1.30738 | 18552 ft | 388 kts | 275° |
| 2026-05-04 05:13 | 41.51658 | 1.27155 | 18928 ft | 389 kts | 271° |
| 2026-05-04 05:14 | 41.51867 | 1.23546 | 19307 ft | 391 kts | 271° |
| 2026-05-04 05:14 | 41.52069 | 1.19960 | 19664 ft | 393 kts | 271° |
| 2026-05-04 05:14 | 41.52280 | 1.16314 | 20047 ft | 395 kts | 271° |
| 2026-05-04 05:14 | 41.52496 | 1.12648 | 20423 ft | 398 kts | 271° |
| 2026-05-04 05:15 | 41.52716 | 1.08955 | 20778 ft | 400 kts | 271° |
| 2026-05-04 05:15 | 41.52939 | 1.05247 | 21138 ft | 402 kts | 271° |
| 2026-05-04 05:15 | 41.53161 | 1.01515 | 21500 ft | 404 kts | 271° |
| 2026-05-04 05:15 | 41.53383 | 0.97770 | 21858 ft | 406 kts | 271° |
| 2026-05-04 05:16 | 41.53606 | 0.94008 | 22227 ft | 408 kts | 271° |
| 2026-05-04 05:16 | 41.53828 | 0.90223 | 22568 ft | 410 kts | 271° |
| 2026-05-04 05:16 | 41.54051 | 0.86420 | 22896 ft | 412 kts | 270° |
| 2026-05-04 05:16 | 41.54273 | 0.82601 | 23248 ft | 414 kts | 270° |
| 2026-05-04 05:17 | 41.54495 | 0.78762 | 23572 ft | 415 kts | 270° |
| 2026-05-04 05:17 | 41.54718 | 0.74900 | 23875 ft | 417 kts | 270° |
| 2026-05-04 05:17 | 41.54972 | 0.71044 | 24194 ft | 419 kts | 273° |
| 2026-05-04 05:17 | 41.55524 | 0.67255 | 24481 ft | 425 kts | 281° |
| 2026-05-04 05:18 | 41.56591 | 0.63481 | 24778 ft | 434 kts | 290° |
| 2026-05-04 05:18 | 41.58165 | 0.59992 | 25033 ft | 444 kts | 300° |
| 2026-05-04 05:18 | 41.60021 | 0.56743 | 25299 ft | 448 kts | 302° |
| 2026-05-04 05:18 | 41.61970 | 0.53484 | 25565 ft | 450 kts | 302° |
| 2026-05-04 05:19 | 41.63928 | 0.50218 | 25835 ft | 451 kts | 302° |
| 2026-05-04 05:19 | 41.65883 | 0.46939 | 26092 ft | 452 kts | 302° |
| 2026-05-04 05:19 | 41.67845 | 0.43638 | 26355 ft | 454 kts | 302° |
| 2026-05-04 05:19 | 41.69809 | 0.40320 | 26619 ft | 455 kts | 302° |
| 2026-05-04 05:20 | 41.71776 | 0.36991 | 26895 ft | 457 kts | 302° |
| 2026-05-04 05:20 | 41.73644 | 0.33567 | 27126 ft | 454 kts | 296° |
| 2026-05-04 05:20 | 41.75134 | 0.29873 | 27367 ft | 448 kts | 287° |
| 2026-05-04 05:20 | 41.76247 | 0.25996 | 27622 ft | 445 kts | 283° |
| 2026-05-04 05:21 | 41.77237 | 0.22063 | 27874 ft | 445 kts | 282° |
| 2026-05-04 05:21 | 41.78167 | 0.18095 | 28059 ft | 448 kts | 281° |
| 2026-05-04 05:21 | 41.79078 | 0.14085 | 28219 ft | 451 kts | 281° |
| 2026-05-04 05:21 | 41.79977 | 0.10115 | 28475 ft | 452 kts | 281° |
| 2026-05-04 05:22 | 41.80897 | 0.06079 | 28707 ft | 453 kts | 281° |
| 2026-05-04 05:22 | 41.81826 | 0.02046 | 29045 ft | 452 kts | 282° |
| 2026-05-04 05:22 | 41.82757 | -0.01970 | 29438 ft | 451 kts | 282° |
| 2026-05-04 05:22 | 41.83691 | -0.05983 | 29734 ft | 451 kts | 282° |
| 2026-05-04 05:23 | 41.84624 | -0.09990 | 30066 ft | 450 kts | 282° |
| 2026-05-04 05:23 | 41.85555 | -0.13993 | 30378 ft | 448 kts | 281° |
| 2026-05-04 05:23 | 41.86479 | -0.17971 | 30713 ft | 446 kts | 281° |
| 2026-05-04 05:23 | 41.87398 | -0.21937 | 31039 ft | 444 kts | 281° |
| 2026-05-04 05:24 | 41.88312 | -0.25889 | 31357 ft | 442 kts | 281° |
| 2026-05-04 05:24 | 41.89220 | -0.29829 | 31650 ft | 440 kts | 281° |
| 2026-05-04 05:24 | 41.90122 | -0.33750 | 31938 ft | 439 kts | 281° |
| 2026-05-04 05:24 | 41.91010 | -0.37616 | 32233 ft | 437 kts | 281° |
| 2026-05-04 05:25 | 41.91906 | -0.41515 | 32534 ft | 436 kts | 281° |
| 2026-05-04 05:25 | 41.92799 | -0.45403 | 32764 ft | 435 kts | 281° |
| 2026-05-04 05:25 | 41.93686 | -0.49277 | 33036 ft | 433 kts | 281° |
| 2026-05-04 05:25 | 41.94569 | -0.53136 | 33306 ft | 432 kts | 281° |
| 2026-05-04 05:26 | 41.95447 | -0.56983 | 33578 ft | 430 kts | 280° |
| 2026-05-04 05:26 | 41.96322 | -0.60821 | 33830 ft | 429 kts | 280° |
| 2026-05-04 05:26 | 41.97193 | -0.64650 | 34059 ft | 428 kts | 280° |
| 2026-05-04 05:26 | 41.98061 | -0.68473 | 34218 ft | 428 kts | 280° |
| 2026-05-04 05:27 | 41.98927 | -0.72299 | 34345 ft | 429 kts | 280° |
| 2026-05-04 05:28 | 42.05005 | -0.99355 | 34977 ft | 435 kts | 280° |
| 2026-05-04 05:29 | 42.06742 | -1.07157 | 34975 ft | 435 kts | 280° |
| 2026-05-04 05:29 | 42.08474 | -1.14962 | 35002 ft | 435 kts | 281° |